Time;durP1;ratioP1;P1;durP2;ratioP2;P2;SDS_P1;SDS_P2;PMS_P1;PMS_P2;Temp;Humidity;BMP_temperature;BMP_pressure;BME280_temperature;BME280_humidity;BME280_pressure;Samples;Min_cycle;Max_cycle;Signal;HPM_P1;HPM_P2
2023/04/23 00:00:25;;;;;;;;;;;9.40;99.90;;;;;;5174481;27;20382;-36
2023/04/23 00:02:52;;;;;;;;;;;9.40;99.90;;;;;;5175150;27;19907;-35
2023/04/23 00:05:18;;;;;;;;;;;9.30;99.90;;;;;;5175197;27;19985;-37
2023/04/23 00:07:44;;;;;;;;;;;9.20;99.90;;;;;;5175103;27;19915;-36
2023/04/23 00:10:09;;;;;;;;;;;9.20;99.90;;;;;;5175924;27;19914;-36
2023/04/23 00:12:35;;;;;;;;;;;9.20;99.90;;;;;;5176006;27;20369;-37
2023/04/23 00:15:01;;;;;;;;;;;9.20;99.90;;;;;;5174906;27;20376;-36
2023/04/23 00:17:27;;;;;;;;;;;9.20;99.90;;;;;;5175867;27;19914;-37
2023/04/23 00:19:52;;;;;;;;;;;9.30;99.90;;;;;;5175986;27;19907;-37
2023/04/23 00:22:19;;;;;;;;;;;9.30;99.90;;;;;;5174953;27;19907;-36
2023/04/23 00:24:45;;;;;;;;;;;9.30;99.90;;;;;;5175759;27;19938;-37
2023/04/23 00:27:11;;;;;;;;;;;9.30;99.90;;;;;;5174861;27;20017;-37
2023/04/23 00:29:36;;;;;;;;;;;9.30;99.90;;;;;;5175525;27;19970;-36
2023/04/23 00:32:02;;;;;;;;;;;9.30;99.90;;;;;;5175524;27;19917;-36
2023/04/23 00:34:28;;;;;;;;;;;9.30;99.90;;;;;;5174875;27;19911;-36
2023/04/23 00:36:53;;;;;;;;;;;9.30;99.90;;;;;;5175604;27;19942;-37
2023/04/23 00:39:19;;;;;;;;;;;9.30;99.90;;;;;;5175605;27;19933;-37
2023/04/23 00:41:44;;;;;;;;;;;9.30;99.90;;;;;;5174851;27;19907;-37
2023/04/23 00:44:10;;;;;;;;;;;9.20;99.90;;;;;;5175259;27;19907;-38
2023/04/23 00:46:36;;;;;;;;;;;9.20;99.90;;;;;;5175506;27;19950;-38
2023/04/23 00:49:02;;;;;;;;;;;9.20;99.90;;;;;;5174466;27;20013;-37
2023/04/23 00:51:28;;;;;;;;;;;9.20;99.90;;;;;;5175173;27;19907;-37
2023/04/23 00:53:53;;;;;;;;;;;9.20;99.90;;;;;;5175408;27;19907;-36
2023/04/23 00:56:20;;;;;;;;;;;9.10;99.90;;;;;;5174597;27;20327;-37
2023/04/23 00:58:46;;;;;;;;;;;9.10;99.90;;;;;;5175330;27;19907;-38
2023/04/23 01:01:12;;;;;;;;;;;9.10;99.90;;;;;;5175153;27;19907;-37
2023/04/23 01:03:40;;;;;;;;;;;9.10;99.90;;;;;;5174332;27;20289;-36
2023/04/23 01:06:05;;;;;;;;;;;9.10;99.90;;;;;;5175098;27;19910;-37
2023/04/23 01:08:31;;;;;;;;;;;9.00;99.90;;;;;;5175168;27;19930;-37
2023/04/23 01:10:57;;;;;;;;;;;9.00;99.90;;;;;;5174429;27;19907;-36
2023/04/23 01:13:25;;;;;;;;;;;9.00;99.90;;;;;;5175307;27;20373;-36
2023/04/23 01:15:51;;;;;;;;;;;8.90;99.90;;;;;;5174947;27;19958;-38
2023/04/23 01:18:18;;;;;;;;;;;8.90;99.90;;;;;;5174213;27;19911;-36
2023/04/23 01:20:43;;;;;;;;;;;8.80;99.90;;;;;;5175074;27;19907;-36
2023/04/23 01:23:09;;;;;;;;;;;8.80;99.90;;;;;;5174982;27;19918;-36
2023/04/23 01:25:34;;;;;;;;;;;8.80;99.90;;;;;;5174247;27;19914;-36
2023/04/23 01:28:00;;;;;;;;;;;8.70;99.90;;;;;;5174533;27;19938;-36
2023/04/23 01:30:26;;;;;;;;;;;8.70;99.90;;;;;;5173795;27;19918;-36
2023/04/23 01:32:52;;;;;;;;;;;8.70;99.90;;;;;;5174721;27;20353;-37
2023/04/23 01:35:18;;;;;;;;;;;8.70;99.90;;;;;;5177746;27;19914;-37
2023/04/23 01:37:44;;;;;;;;;;;8.70;99.90;;;;;;5178067;27;19911;-36
2023/04/23 01:40:10;;;;;;;;;;;8.70;99.90;;;;;;5179007;27;19907;-37
2023/04/23 01:42:36;;;;;;;;;;;8.70;99.90;;;;;;5178915;27;19913;-36
2023/04/23 01:45:02;;;;;;;;;;;8.70;99.90;;;;;;5178013;27;20361;-37
2023/04/23 01:47:27;;;;;;;;;;;8.70;99.90;;;;;;5178726;27;19922;-36
2023/04/23 01:49:53;;;;;;;;;;;8.70;99.90;;;;;;5178292;27;20254;-37
2023/04/23 01:52:19;;;;;;;;;;;8.60;99.90;;;;;;5170358;27;19970;-36
2023/04/23 01:54:44;;;;;;;;;;;8.70;99.90;;;;;;5174580;27;19907;-36
2023/04/23 01:57:10;;;;;;;;;;;8.60;99.90;;;;;;5167479;27;20323;-36
2023/04/23 01:59:36;;;;;;;;;;;8.60;99.90;;;;;;5161799;27;19961;-37
2023/04/23 02:02:02;;;;;;;;;;;8.60;99.90;;;;;;5175545;27;20348;-36
2023/04/23 02:04:28;;;;;;;;;;;8.60;99.90;;;;;;5157698;27;19911;-36
2023/04/23 02:06:53;;;;;;;;;;;8.60;99.90;;;;;;5138167;27;20285;-36
2023/04/23 02:09:20;;;;;;;;;;;8.60;99.90;;;;;;5157615;27;19914;-36
2023/04/23 02:11:45;;;;;;;;;;;8.50;99.90;;;;;;5169234;27;19907;-37
2023/04/23 02:14:11;;;;;;;;;;;8.50;99.90;;;;;;5177299;27;19907;-37
2023/04/23 02:16:36;;;;;;;;;;;8.50;99.90;;;;;;5172487;27;20438;-38
2023/04/23 02:19:02;;;;;;;;;;;8.50;99.90;;;;;;5156975;27;20377;-36
2023/04/23 02:21:28;;;;;;;;;;;8.40;99.90;;;;;;5156521;27;19913;-37
2023/04/23 02:23:54;;;;;;;;;;;8.40;99.90;;;;;;5157115;27;19952;-36
2023/04/23 02:26:21;;;;;;;;;;;8.40;99.90;;;;;;5157222;27;19911;-37
2023/04/23 02:28:47;;;;;;;;;;;8.30;99.90;;;;;;5156389;27;19930;-36
2023/04/23 02:31:12;;;;;;;;;;;8.30;99.90;;;;;;5156692;27;19923;-36
2023/04/23 02:33:38;;;;;;;;;;;8.30;99.90;;;;;;5157052;27;19914;-36
2023/04/23 02:36:04;;;;;;;;;;;8.20;99.90;;;;;;5156201;27;19907;-36
2023/04/23 02:38:29;;;;;;;;;;;8.20;99.90;;;;;;5156987;27;19908;-36
2023/04/23 02:40:55;;;;;;;;;;;8.20;99.90;;;;;;5156103;27;19953;-37
2023/04/23 02:43:20;;;;;;;;;;;8.20;99.90;;;;;;5156830;27;19930;-36
2023/04/23 02:45:45;;;;;;;;;;;8.10;99.90;;;;;;5155395;27;19908;-37
2023/04/23 02:48:11;;;;;;;;;;;8.10;99.90;;;;;;5155741;27;19919;-37
2023/04/23 02:50:39;;;;;;;;;;;8.10;99.90;;;;;;5156749;27;19983;-37
2023/04/23 02:53:05;;;;;;;;;;;8.10;99.90;;;;;;5156512;27;19907;-37
2023/04/23 02:55:30;;;;;;;;;;;8.00;99.90;;;;;;5155916;27;19907;-36
2023/04/23 02:57:57;;;;;;;;;;;8.00;99.90;;;;;;5156471;27;19953;-36
2023/04/23 03:00:23;;;;;;;;;;;8.00;99.90;;;;;;5156495;27;19922;-37
2023/04/23 03:02:48;;;;;;;;;;;7.90;99.90;;;;;;5155645;27;19907;-37
2023/04/23 03:05:14;;;;;;;;;;;7.90;99.90;;;;;;5156348;27;19907;-37
2023/04/23 03:07:39;;;;;;;;;;;7.90;99.90;;;;;;5156322;27;20018;-36
2023/04/23 03:10:05;;;;;;;;;;;7.90;99.90;;;;;;5155278;27;19956;-36
2023/04/23 03:12:31;;;;;;;;;;;7.90;99.90;;;;;;5156197;27;19907;-37
2023/04/23 03:14:56;;;;;;;;;;;7.90;99.90;;;;;;5156093;27;19911;-36
2023/04/23 03:17:22;;;;;;;;;;;7.90;99.90;;;;;;5155457;27;19914;-36
2023/04/23 03:19:47;;;;;;;;;;;7.90;99.90;;;;;;5156133;27;19911;-37
2023/04/23 03:22:13;;;;;;;;;;;7.90;99.90;;;;;;5156043;27;20009;-36
2023/04/23 03:24:38;;;;;;;;;;;8.00;99.90;;;;;;5155320;27;19958;-36
2023/04/23 03:27:04;;;;;;;;;;;8.00;99.90;;;;;;5155848;27;19911;-36
2023/04/23 03:29:29;;;;;;;;;;;8.00;99.90;;;;;;5155670;27;20361;-37
2023/04/23 03:31:55;;;;;;;;;;;8.00;99.90;;;;;;5155112;27;19993;-37
2023/04/23 03:34:21;;;;;;;;;;;8.00;99.90;;;;;;5156004;27;20357;-37
2023/04/23 03:36:47;;;;;;;;;;;8.00;99.90;;;;;;5155901;27;20429;-36
2023/04/23 03:39:13;;;;;;;;;;;8.00;99.90;;;;;;5154947;27;19911;-37
2023/04/23 03:41:39;;;;;;;;;;;7.90;99.90;;;;;;5155793;27;19951;-36
2023/04/23 03:44:04;;;;;;;;;;;7.90;99.90;;;;;;5154645;27;20354;-36
2023/04/23 03:46:30;;;;;;;;;;;7.90;99.90;;;;;;5154624;27;19964;-36
2023/04/23 03:48:55;;;;;;;;;;;7.90;99.90;;;;;;5154566;27;19922;-37
2023/04/23 03:51:21;;;;;;;;;;;7.80;99.90;;;;;;5159750;27;19911;-36
2023/04/23 03:53:47;;;;;;;;;;;7.80;99.90;;;;;;5175388;27;19918;-36
2023/04/23 03:56:12;;;;;;;;;;;7.80;99.90;;;;;;5176251;27;19911;-38
2023/04/23 03:58:37;;;;;;;;;;;7.80;99.90;;;;;;5175047;27;20297;-36
2023/04/23 04:01:03;;;;;;;;;;;7.90;99.90;;;;;;5175216;27;19911;-37
2023/04/23 04:03:29;;;;;;;;;;;7.90;99.90;;;;;;5175170;27;19952;-37
2023/04/23 04:05:54;;;;;;;;;;;7.90;99.90;;;;;;5174493;27;19914;-36
2023/04/23 04:08:21;;;;;;;;;;;8.00;99.90;;;;;;5175095;27;20350;-38
2023/04/23 04:10:46;;;;;;;;;;;8.00;99.90;;;;;;5175966;27;19997;-37
2023/04/23 04:13:12;;;;;;;;;;;8.00;99.90;;;;;;5175036;27;19998;-38
2023/04/23 04:15:37;;;;;;;;;;;8.00;99.90;;;;;;5175716;27;19913;-37
2023/04/23 04:18:03;;;;;;;;;;;8.00;99.90;;;;;;5175739;27;20306;-37
2023/04/23 04:20:28;;;;;;;;;;;8.00;99.90;;;;;;5171387;27;19919;-37
2023/04/23 04:22:54;;;;;;;;;;;8.00;99.90;;;;;;5169069;27;20420;-38
2023/04/23 04:25:21;;;;;;;;;;;8.00;99.90;;;;;;5157499;27;20307;-37
2023/04/23 04:27:46;;;;;;;;;;;8.10;99.90;;;;;;5163953;27;20392;-36
2023/04/23 04:30:12;;;;;;;;;;;8.10;99.90;;;;;;5168027;27;19999;-37
2023/04/23 04:32:39;;;;;;;;;;;8.10;99.90;;;;;;5175582;27;20129;-37
2023/04/23 04:35:05;;;;;;;;;;;8.20;99.90;;;;;;5174751;27;20032;-37
2023/04/23 04:37:31;;;;;;;;;;;8.20;99.90;;;;;;5175730;27;19906;-37
2023/04/23 04:39:56;;;;;;;;;;;8.20;99.90;;;;;;5160228;27;19997;-37
2023/04/23 04:42:21;;;;;;;;;;;8.20;99.90;;;;;;5153792;27;19914;-36
2023/04/23 04:44:47;;;;;;;;;;;8.30;99.90;;;;;;5158317;27;20421;-37
2023/04/23 04:47:15;;;;;;;;;;;8.30;99.90;;;;;;5175306;27;19919;-38
2023/04/23 04:49:40;;;;;;;;;;;8.30;99.90;;;;;;5174533;27;19956;-38
2023/04/23 04:52:06;;;;;;;;;;;8.30;99.90;;;;;;5175264;27;19911;-37
2023/04/23 04:54:31;;;;;;;;;;;8.40;99.90;;;;;;5174760;27;20347;-37
2023/04/23 04:56:56;;;;;;;;;;;8.40;99.90;;;;;;5157376;27;19911;-37
2023/04/23 04:59:22;;;;;;;;;;;8.40;99.90;;;;;;5173658;27;19910;-37
2023/04/23 05:01:47;;;;;;;;;;;8.50;99.90;;;;;;5174559;27;19921;-38
2023/04/23 05:04:13;;;;;;;;;;;8.50;99.90;;;;;;5175159;27;19914;-37
2023/04/23 05:06:38;;;;;;;;;;;8.60;99.90;;;;;;5175311;27;19907;-37
2023/04/23 05:09:04;;;;;;;;;;;8.70;99.90;;;;;;5175118;27;19922;-37
2023/04/23 05:11:30;;;;;;;;;;;8.80;99.90;;;;;;5179628;27;20369;-36
2023/04/23 05:13:56;;;;;;;;;;;8.80;99.90;;;;;;5179479;27;20321;-37
2023/04/23 05:16:21;;;;;;;;;;;8.90;99.90;;;;;;5178543;27;19946;-37
2023/04/23 05:18:47;;;;;;;;;;;9.00;99.90;;;;;;5179241;27;19911;-37
2023/04/23 05:21:13;;;;;;;;;;;9.10;99.90;;;;;;5179369;27;20007;-36
2023/04/23 05:23:38;;;;;;;;;;;9.20;99.90;;;;;;5178755;27;19907;-37
2023/04/23 05:26:04;;;;;;;;;;;9.20;99.90;;;;;;5179125;27;19936;-37
2023/04/23 05:28:30;;;;;;;;;;;9.20;99.90;;;;;;5179215;27;20444;-36
2023/04/23 05:30:56;;;;;;;;;;;9.30;99.90;;;;;;5178071;27;19922;-37
2023/04/23 05:33:21;;;;;;;;;;;9.30;99.90;;;;;;5179041;27;19913;-37
2023/04/23 05:35:47;;;;;;;;;;;9.30;99.90;;;;;;5179083;27;19913;-37
2023/04/23 05:38:12;;;;;;;;;;;9.30;99.90;;;;;;5178184;27;19907;-38
2023/04/23 05:40:38;;;;;;;;;;;9.30;99.90;;;;;;5178910;27;20406;-37
2023/04/23 05:43:03;;;;;;;;;;;9.40;99.90;;;;;;5178863;27;19910;-37
2023/04/23 05:45:29;;;;;;;;;;;9.40;99.90;;;;;;5178112;27;20254;-37
2023/04/23 05:47:54;;;;;;;;;;;9.40;99.90;;;;;;5178676;27;19910;-36
2023/04/23 05:50:20;;;;;;;;;;;9.50;99.90;;;;;;5178810;27;19910;-36
2023/04/23 05:52:46;;;;;;;;;;;9.50;99.90;;;;;;5172579;27;20391;-37
2023/04/23 05:55:11;;;;;;;;;;;9.50;99.90;;;;;;5173447;27;19958;-36
2023/04/23 05:57:37;;;;;;;;;;;9.50;99.90;;;;;;5157144;27;19999;-37
2023/04/23 06:00:04;;;;;;;;;;;9.50;99.90;;;;;;5171060;27;19911;-36
2023/04/23 06:02:30;;;;;;;;;;;9.60;99.90;;;;;;5174634;27;19907;-37
2023/04/23 06:04:55;;;;;;;;;;;9.60;99.90;;;;;;5176865;27;20284;-36
2023/04/23 06:07:21;;;;;;;;;;;9.50;99.90;;;;;;5177840;27;20272;-36
2023/04/23 06:09:46;;;;;;;;;;;9.50;99.90;;;;;;5177832;27;19966;-37
2023/04/23 06:12:11;;;;;;;;;;;9.60;99.90;;;;;;5176922;27;20420;-37
2023/04/23 06:14:37;;;;;;;;;;;9.50;99.90;;;;;;5177744;27;19913;-37
2023/04/23 06:17:02;;;;;;;;;;;9.60;99.90;;;;;;5177656;27;19946;-36
2023/04/23 06:19:28;;;;;;;;;;;9.60;99.90;;;;;;5176928;27;19906;-37
2023/04/23 06:21:53;;;;;;;;;;;9.70;99.90;;;;;;5177328;27;19913;-37
2023/04/23 06:24:19;;;;;;;;;;;9.80;99.90;;;;;;5177536;27;19907;-37
2023/04/23 06:26:45;;;;;;;;;;;9.90;99.90;;;;;;5176635;27;20360;-36
2023/04/23 06:29:10;;;;;;;;;;;9.90;99.90;;;;;;5177164;27;20017;-37
2023/04/23 06:31:36;;;;;;;;;;;10.00;99.90;;;;;;5176005;27;20350;-38
2023/04/23 06:34:01;;;;;;;;;;;10.10;99.90;;;;;;5175618;27;21295;-37
2023/04/23 06:36:26;;;;;;;;;;;10.10;99.90;;;;;;5176180;27;19963;-36
2023/04/23 06:38:52;;;;;;;;;;;10.10;99.90;;;;;;5176182;27;19911;-36
2023/04/23 06:41:17;;;;;;;;;;;10.20;99.90;;;;;;5174747;27;20391;-37
2023/04/23 06:43:44;;;;;;;;;;;10.20;99.90;;;;;;5175645;27;20021;-37
2023/04/23 06:46:10;;;;;;;;;;;10.30;99.90;;;;;;5174661;27;19910;-37
2023/04/23 06:48:36;;;;;;;;;;;10.40;99.90;;;;;;5175422;27;20157;-37
2023/04/23 06:51:02;;;;;;;;;;;10.40;99.90;;;;;;5175947;27;20387;-37
2023/04/23 06:53:27;;;;;;;;;;;10.40;99.90;;;;;;5169063;27;20047;-37
2023/04/23 06:55:53;;;;;;;;;;;10.50;99.90;;;;;;5175032;27;20285;-37
2023/04/23 06:58:18;;;;;;;;;;;10.60;99.90;;;;;;5176225;27;19911;-37
2023/04/23 07:00:44;;;;;;;;;;;10.60;99.90;;;;;;5171117;27;20266;-37
2023/04/23 07:03:10;;;;;;;;;;;10.70;99.90;;;;;;5170204;27;19914;-37
2023/04/23 07:05:35;;;;;;;;;;;10.80;99.90;;;;;;5177184;27;19914;-37
2023/04/23 07:08:01;;;;;;;;;;;10.80;99.90;;;;;;5174850;27;19919;-38
2023/04/23 07:10:26;;;;;;;;;;;10.90;99.90;;;;;;5176940;27;20321;-36
2023/04/23 07:12:52;;;;;;;;;;;10.90;99.90;;;;;;5176949;27;20319;-38
2023/04/23 07:15:17;;;;;;;;;;;10.90;99.90;;;;;;5176385;27;20005;-37
2023/04/23 07:17:43;;;;;;;;;;;11.00;99.90;;;;;;5159235;27;19918;-37
2023/04/23 07:20:08;;;;;;;;;;;11.10;99.90;;;;;;5171347;27;19911;-36
2023/04/23 07:22:34;;;;;;;;;;;11.20;99.90;;;;;;5176303;27;20001;-37
2023/04/23 07:25:00;;;;;;;;;;;11.20;99.90;;;;;;5175263;27;20037;-37
2023/04/23 07:27:25;;;;;;;;;;;11.30;99.90;;;;;;5175282;27;19939;-37
2023/04/23 07:29:51;;;;;;;;;;;11.50;99.90;;;;;;5174141;27;19922;-36
2023/04/23 07:32:16;;;;;;;;;;;11.60;99.90;;;;;;5173357;27;20001;-38
2023/04/23 07:34:42;;;;;;;;;;;11.70;99.90;;;;;;5175232;27;19958;-36
2023/04/23 07:37:08;;;;;;;;;;;11.70;99.90;;;;;;5169607;27;19922;-36
2023/04/23 07:39:33;;;;;;;;;;;11.80;99.90;;;;;;5169209;27;19926;-37
2023/04/23 07:41:59;;;;;;;;;;;12.00;99.90;;;;;;5175438;27;19906;-36
2023/04/23 07:44:25;;;;;;;;;;;12.10;99.90;;;;;;5174825;27;20367;-36
2023/04/23 07:46:51;;;;;;;;;;;12.20;99.90;;;;;;5161556;27;19938;-38
2023/04/23 07:49:16;;;;;;;;;;;12.30;99.90;;;;;;5175258;27;20280;-37
2023/04/23 07:51:42;;;;;;;;;;;12.40;99.90;;;;;;5175026;27;19918;-38
2023/04/23 07:54:08;;;;;;;;;;;12.50;99.90;;;;;;5174887;27;20380;-37
2023/04/23 07:56:33;;;;;;;;;;;12.60;99.90;;;;;;5165377;27;19994;-38
2023/04/23 07:58:59;;;;;;;;;;;12.60;99.90;;;;;;5159282;27;19910;-37
2023/04/23 08:01:24;;;;;;;;;;;12.70;99.90;;;;;;5168081;27;19930;-38
2023/04/23 08:03:50;;;;;;;;;;;12.80;99.90;;;;;;5163789;27;19954;-38
2023/04/23 08:06:17;;;;;;;;;;;12.80;99.90;;;;;;5172830;27;19915;-36
2023/04/23 08:08:42;;;;;;;;;;;12.80;99.90;;;;;;5165921;27;20392;-37
2023/04/23 08:11:08;;;;;;;;;;;12.80;99.90;;;;;;5174520;27;19910;-37
2023/04/23 08:13:33;;;;;;;;;;;12.80;99.90;;;;;;5172217;27;19953;-37
2023/04/23 08:15:59;;;;;;;;;;;12.80;99.90;;;;;;5174775;27;19911;-37
2023/04/23 08:18:24;;;;;;;;;;;12.90;99.90;;;;;;5175188;27;20005;-37
2023/04/23 08:20:50;;;;;;;;;;;12.90;99.90;;;;;;5175287;27;19910;-38
2023/04/23 08:23:16;;;;;;;;;;;13.00;99.90;;;;;;5176077;27;19914;-37
2023/04/23 08:25:41;;;;;;;;;;;13.00;99.90;;;;;;5174985;27;20347;-37
2023/04/23 08:28:07;;;;;;;;;;;13.10;99.90;;;;;;5175319;27;20453;-37
2023/04/23 08:30:32;;;;;;;;;;;13.20;99.90;;;;;;5175432;27;19918;-37
2023/04/23 08:32:58;;;;;;;;;;;13.20;99.90;;;;;;5156510;27;19911;-39
2023/04/23 08:35:23;;;;;;;;;;;13.30;99.90;;;;;;5164768;27;20411;-37
2023/04/23 08:37:49;;;;;;;;;;;13.40;99.90;;;;;;5167830;27;19910;-38
2023/04/23 08:40:15;;;;;;;;;;;13.50;99.90;;;;;;5169930;27;19917;-37
2023/04/23 08:42:43;;;;;;;;;;;13.50;99.90;;;;;;5174662;27;20010;-37
2023/04/23 08:45:08;;;;;;;;;;;13.50;99.90;;;;;;5174865;27;19918;-36
2023/04/23 08:47:35;;;;;;;;;;;13.60;99.90;;;;;;5173379;27;19915;-37
2023/04/23 08:50:02;;;;;;;;;;;13.60;99.90;;;;;;5175412;27;20038;-37
2023/04/23 08:52:31;;;;;;;;;;;13.70;99.90;;;;;;5174959;27;19907;-37
2023/04/23 08:54:59;;;;;;;;;;;13.80;99.90;;;;;;5174711;27;19907;-36
2023/04/23 08:57:25;;;;;;;;;;;13.80;99.90;;;;;;5175526;27;19952;-37
2023/04/23 08:59:51;;;;;;;;;;;13.90;99.90;;;;;;5174712;27;19911;-38
2023/04/23 09:02:16;;;;;;;;;;;14.00;99.90;;;;;;5174783;27;19914;-37
2023/04/23 09:04:43;;;;;;;;;;;14.10;99.90;;;;;;5175328;27;19913;-39
2023/04/23 09:07:10;;;;;;;;;;;14.20;99.90;;;;;;5174998;27;19907;-37
2023/04/23 09:09:36;;;;;;;;;;;14.30;99.90;;;;;;5174314;27;19915;-37
2023/04/23 09:12:03;;;;;;;;;;;14.30;99.90;;;;;;5175409;27;19953;-37
2023/04/23 09:14:29;;;;;;;;;;;14.30;99.90;;;;;;5175156;27;19932;-37
2023/04/23 09:16:54;;;;;;;;;;;14.50;99.90;;;;;;5174383;27;19911;-37
2023/04/23 09:19:20;;;;;;;;;;;14.50;99.90;;;;;;5174915;27;19918;-37
2023/04/23 09:21:45;;;;;;;;;;;14.70;99.90;;;;;;5174246;27;20004;-38
2023/04/23 09:24:11;;;;;;;;;;;14.70;99.90;;;;;;5175006;27;19911;-38
2023/04/23 09:26:47;;;;;;;;;;;14.80;99.90;;;;;;5175145;27;19907;-38
2023/04/23 09:29:17;;;;;;;;;;;15.00;99.90;;;;;;5173977;27;19919;-38
2023/04/23 09:31:48;;;;;;;;;;;15.10;99.90;;;;;;5175063;27;19922;-38
2023/04/23 09:34:18;;;;;;;;;;;15.20;99.90;;;;;;5174935;27;19914;-37
2023/04/23 09:36:44;;;;;;;;;;;15.30;99.90;;;;;;5174219;27;19907;-38
2023/04/23 09:39:13;;;;;;;;;;;15.40;99.90;;;;;;5174499;27;19918;-38
2023/04/23 09:41:39;;;;;;;;;;;15.50;99.90;;;;;;5174927;27;19907;-38
2023/04/23 09:44:04;;;;;;;;;;;15.80;99.90;;;;;;5174220;27;19907;-38
2023/04/23 09:46:37;;;;;;;;;;;15.90;99.90;;;;;;5174755;27;20280;-37
2023/04/23 09:49:03;;;;;;;;;;;16.00;99.90;;;;;;5174516;27;20364;-37
2023/04/23 09:51:29;;;;;;;;;;;16.10;99.90;;;;;;5174263;27;19916;-38
2023/04/23 09:53:55;;;;;;;;;;;16.20;99.90;;;;;;5174778;27;19938;-37
2023/04/23 09:56:20;;;;;;;;;;;16.20;99.90;;;;;;5177705;27;19995;-38
2023/04/23 09:58:46;;;;;;;;;;;16.00;99.90;;;;;;5177971;27;20283;-37
2023/04/23 10:01:14;;;;;;;;;;;15.80;99.90;;;;;;5178198;27;19984;-38
2023/04/23 10:03:42;;;;;;;;;;;15.80;99.90;;;;;;5178408;27;19918;-38
2023/04/23 10:06:14;;;;;;;;;;;15.70;99.90;;;;;;5178044;27;19918;-38
2023/04/23 10:08:40;;;;;;;;;;;15.60;99.90;;;;;;5159694;27;20292;-37
2023/04/23 10:11:06;;;;;;;;;;;15.60;99.90;;;;;;5177594;27;19907;-37
2023/04/23 10:13:33;;;;;;;;;;;15.50;99.90;;;;;;5178213;27;19954;-37
2023/04/23 10:15:59;;;;;;;;;;;15.40;99.90;;;;;;5178242;27;19910;-38
2023/04/23 10:18:25;;;;;;;;;;;15.50;99.90;;;;;;5177642;27;19932;-37
2023/04/23 10:20:51;;;;;;;;;;;15.60;99.90;;;;;;5178229;27;19906;-37
2023/04/23 10:23:18;;;;;;;;;;;15.70;99.90;;;;;;5178014;27;20002;-37
2023/04/23 10:25:44;;;;;;;;;;;15.80;99.90;;;;;;5177421;27;19966;-37
2023/04/23 10:28:11;;;;;;;;;;;15.80;99.90;;;;;;5177968;27;19915;-37
2023/04/23 10:30:36;;;;;;;;;;;15.80;99.90;;;;;;5177434;27;19919;-37
2023/04/23 10:33:03;;;;;;;;;;;15.90;99.90;;;;;;5177151;27;19914;-36
2023/04/23 10:35:28;;;;;;;;;;;16.00;99.90;;;;;;5178116;27;20409;-38
2023/04/23 10:37:54;;;;;;;;;;;16.20;99.90;;;;;;5177910;27;19946;-38
2023/04/23 10:40:23;;;;;;;;;;;16.30;99.90;;;;;;5176914;27;19917;-38
2023/04/23 10:42:49;;;;;;;;;;;16.60;99.90;;;;;;5177823;27;20009;-38
2023/04/23 10:45:15;;;;;;;;;;;16.70;99.90;;;;;;5177923;27;19997;-37
2023/04/23 10:47:42;;;;;;;;;;;16.60;99.90;;;;;;5176714;27;20349;-37
2023/04/23 10:50:23;;;;;;;;;;;16.50;99.90;;;;;;5177429;27;19914;-38
2023/04/23 10:52:53;;;;;;;;;;;16.40;99.90;;;;;;5177633;27;20438;-38
2023/04/23 10:55:22;;;;;;;;;;;16.30;99.90;;;;;;5177015;27;19951;-39
2023/04/23 10:57:58;;;;;;;;;;;16.20;99.90;;;;;;5177600;27;19907;-37
2023/04/23 11:00:24;;;;;;;;;;;16.20;99.90;;;;;;5176787;27;19914;-38
2023/04/23 11:02:49;;;;;;;;;;;16.20;99.90;;;;;;5177453;27;19907;-37
2023/04/23 11:05:16;;;;;;;;;;;16.20;99.90;;;;;;5177502;27;19906;-37
2023/04/23 11:07:41;;;;;;;;;;;16.20;99.90;;;;;;5175099;27;19915;-37
2023/04/23 11:10:13;;;;;;;;;;;16.30;99.90;;;;;;5177309;27;19963;-37
2023/04/23 11:12:39;;;;;;;;;;;16.40;99.90;;;;;;5177344;27;20076;-37
2023/04/23 11:15:11;;;;;;;;;;;16.50;99.90;;;;;;5176152;27;19955;-38
2023/04/23 11:17:36;;;;;;;;;;;16.60;99.90;;;;;;5177195;27;19907;-38
2023/04/23 11:20:09;;;;;;;;;;;16.70;99.90;;;;;;5177270;27;19907;-38
2023/04/23 11:22:35;;;;;;;;;;;16.70;99.90;;;;;;5176235;27;19945;-38
2023/04/23 11:25:01;;;;;;;;;;;16.70;99.90;;;;;;5176943;27;20322;-38
2023/04/23 11:27:28;;;;;;;;;;;16.80;99.90;;;;;;5176922;27;19998;-38
2023/04/23 11:29:54;;;;;;;;;;;16.90;99.90;;;;;;5175478;27;19926;-38
2023/04/23 11:32:20;;;;;;;;;;;17.00;99.90;;;;;;5177007;27;19911;-38
2023/04/23 11:34:46;;;;;;;;;;;17.40;99.90;;;;;;5176868;27;20383;-38
2023/04/23 11:37:15;;;;;;;;;;;17.80;99.90;;;;;;5175924;27;20266;-37
2023/04/23 11:39:42;;;;;;;;;;;18.10;99.90;;;;;;5176748;27;19913;-37
2023/04/23 11:42:11;;;;;;;;;;;18.40;99.90;;;;;;5176647;27;19933;-37
2023/04/23 11:44:38;;;;;;;;;;;18.70;99.90;;;;;;5175835;27;19995;-37
2023/04/23 11:47:07;;;;;;;;;;;18.90;99.90;;;;;;5175806;27;21569;-37
2023/04/23 11:49:32;;;;;;;;;;;19.10;99.90;;;;;;5175630;27;19921;-38
2023/04/23 11:51:58;;;;;;;;;;;19.20;99.90;;;;;;5176259;27;20013;-38
2023/04/23 11:54:26;;;;;;;;;;;19.20;99.90;;;;;;5176579;27;19945;-38
2023/04/23 11:56:52;;;;;;;;;;;18.90;99.90;;;;;;5175604;27;19919;-38
2023/04/23 11:59:17;;;;;;;;;;;18.60;99.90;;;;;;5176341;27;20424;-38
2023/04/23 12:01:43;;;;;;;;;;;18.30;99.90;;;;;;5176266;27;19958;-37
2023/04/23 12:04:12;;;;;;;;;;;18.10;99.90;;;;;;5175416;27;19911;-38
2023/04/23 12:06:39;;;;;;;;;;;18.00;99.90;;;;;;5176282;27;20213;-38
2023/04/23 12:09:04;;;;;;;;;;;18.00;99.90;;;;;;5175999;27;19918;-38
2023/04/23 12:11:30;;;;;;;;;;;17.90;99.90;;;;;;5175354;27;19907;-38
2023/04/23 12:13:56;;;;;;;;;;;17.90;99.90;;;;;;5176035;27;19974;-37
2023/04/23 12:16:32;;;;;;;;;;;18.00;99.90;;;;;;5176083;27;19907;-37
2023/04/23 12:18:59;;;;;;;;;;;18.30;99.90;;;;;;5174487;27;19915;-37
2023/04/23 12:21:27;;;;;;;;;;;18.70;99.90;;;;;;5175981;27;19982;-37
2023/04/23 12:23:53;;;;;;;;;;;18.90;99.90;;;;;;5176096;27;19906;-38
2023/04/23 12:26:19;;;;;;;;;;;19.00;99.90;;;;;;5175054;27;19907;-38
2023/04/23 12:28:51;;;;;;;;;;;19.10;99.90;;;;;;5175733;27;19963;-38
2023/04/23 12:31:26;;;;;;;;;;;19.30;99.90;;;;;;5175380;27;19925;-38
2023/04/23 12:33:55;;;;;;;;;;;19.30;99.90;;;;;;5174975;27;20002;-37
2023/04/23 12:36:24;;;;;;;;;;;19.50;99.90;;;;;;5175678;27;19907;-38
2023/04/23 12:38:50;;;;;;;;;;;19.50;99.90;;;;;;5174923;27;19959;-37
2023/04/23 12:41:15;;;;;;;;;;;19.40;99.90;;;;;;5175628;27;19910;-38
2023/04/23 12:43:41;;;;;;;;;;;19.20;99.90;;;;;;5175543;27;19968;-38
2023/04/23 12:46:06;;;;;;;;;;;19.20;99.90;;;;;;5174389;27;20384;-37
2023/04/23 12:48:32;;;;;;;;;;;19.10;99.90;;;;;;5175542;27;20284;-38
2023/04/23 12:50:57;;;;;;;;;;;19.10;99.90;;;;;;5175441;27;19911;-38
2023/04/23 12:53:23;;;;;;;;;;;19.10;99.90;;;;;;5174722;27;19907;-37
2023/04/23 12:55:49;;;;;;;;;;;19.10;99.90;;;;;;5175369;27;19914;-37
2023/04/23 12:58:14;;;;;;;;;;;18.90;99.90;;;;;;5175266;27;19911;-38
2023/04/23 13:00:40;;;;;;;;;;;18.90;99.00;;;;;;5174666;27;19913;-38
2023/04/23 13:03:05;;;;;;;;;;;18.90;99.90;;;;;;5175270;27;19907;-38
2023/04/23 13:05:31;;;;;;;;;;;18.80;99.90;;;;;;5175338;27;19907;-38
2023/04/23 13:07:56;;;;;;;;;;;18.80;99.90;;;;;;5174343;27;19910;-38
2023/04/23 13:10:21;;;;;;;;;;;18.80;99.90;;;;;;5175342;27;20002;-38
2023/04/23 13:12:47;;;;;;;;;;;18.70;99.90;;;;;;5175081;27;19906;-38
2023/04/23 13:15:12;;;;;;;;;;;18.80;99.90;;;;;;5174105;27;19911;-38
2023/04/23 13:17:38;;;;;;;;;;;18.90;99.90;;;;;;5175251;27;20345;-38
2023/04/23 13:20:04;;;;;;;;;;;19.00;99.90;;;;;;5175109;27;19967;-38
2023/04/23 13:22:30;;;;;;;;;;;19.10;99.90;;;;;;5174323;27;19907;-38
2023/04/23 13:24:56;;;;;;;;;;;19.30;99.90;;;;;;5175062;27;19907;-38
2023/04/23 13:27:23;;;;;;;;;;;19.40;99.90;;;;;;5174909;27;19914;-37
2023/04/23 13:29:48;;;;;;;;;;;19.60;99.90;;;;;;5174248;27;19918;-38
2023/04/23 13:32:15;;;;;;;;;;;19.80;99.90;;;;;;5179409;27;20369;-37
2023/04/23 13:34:40;;;;;;;;;;;20.00;99.90;;;;;;5179312;27;20059;-38
2023/04/23 13:37:08;;;;;;;;;;;20.00;96.00;;;;;;5178441;27;19954;-38
2023/04/23 13:39:36;;;;;;;;;;;20.10;99.90;;;;;;5179217;27;20001;-38
2023/04/23 13:42:03;;;;;;;;;;;20.10;96.60;;;;;;5177907;27;19911;-39
2023/04/23 13:44:31;;;;;;;;;;;20.00;98.30;;;;;;5178500;27;19945;-38
2023/04/23 13:46:58;;;;;;;;;;;19.90;99.90;;;;;;5178778;27;20368;-38
2023/04/23 13:49:27;;;;;;;;;;;19.70;92.70;;;;;;5178193;27;20001;-38
2023/04/23 13:51:57;;;;;;;;;;;19.50;91.80;;;;;;5178906;27;19994;-38
2023/04/23 13:54:23;;;;;;;;;;;19.20;96.90;;;;;;5178921;27;20035;-38
2023/04/23 13:56:48;;;;;;;;;;;19.10;99.60;;;;;;5177949;27;20397;-38
2023/04/23 13:59:14;;;;;;;;;;;19.00;99.90;;;;;;5178842;27;20005;-38
2023/04/23 14:01:39;;;;;;;;;;;19.00;99.90;;;;;;5178792;27;19938;-37
2023/04/23 14:04:05;;;;;;;;;;;19.00;99.90;;;;;;5177855;27;19914;-37
2023/04/23 14:06:30;;;;;;;;;;;18.80;99.90;;;;;;5178713;27;19907;-38
2023/04/23 14:08:56;;;;;;;;;;;18.70;99.90;;;;;;5178496;27;19918;-38
2023/04/23 14:11:21;;;;;;;;;;;18.70;99.90;;;;;;5177305;27;20377;-38
2023/04/23 14:13:47;;;;;;;;;;;18.70;99.90;;;;;;5178477;27;19918;-37
2023/04/23 14:16:13;;;;;;;;;;;18.70;99.90;;;;;;5178377;27;19914;-38